sensor_id;sensor_type;location;lat;lon;timestamp;P1;durP1;ratioP1;P2;durP2;ratioP2
2928;SDS011;1474;51.460;7.150;2023-05-16T00:00:33;13.88;;;8.07;;
2928;SDS011;1474;51.460;7.150;2023-05-16T00:03:03;14.32;;;9.13;;
2928;SDS011;1474;51.460;7.150;2023-05-16T00:05:30;11.82;;;7.70;;
2928;SDS011;1474;51.460;7.150;2023-05-16T00:07:56;11.80;;;8.05;;
2928;SDS011;1474;51.460;7.150;2023-05-16T00:10:21;12.45;;;8.20;;
2928;SDS011;1474;51.460;7.150;2023-05-16T00:12:47;12.38;;;8.35;;
2928;SDS011;1474;51.460;7.150;2023-05-16T00:15:15;12.23;;;7.85;;
2928;SDS011;1474;51.460;7.150;2023-05-16T00:17:44;10.40;;;7.32;;
2928;SDS011;1474;51.460;7.150;2023-05-16T00:20:11;10.57;;;6.13;;
2928;SDS011;1474;51.460;7.150;2023-05-16T00:22:38;8.75;;;5.97;;
2928;SDS011;1474;51.460;7.150;2023-05-16T00:25:05;8.88;;;5.05;;
2928;SDS011;1474;51.460;7.150;2023-05-16T00:27:33;7.75;;;5.22;;
2928;SDS011;1474;51.460;7.150;2023-05-16T00:30:00;6.60;;;4.72;;
2928;SDS011;1474;51.460;7.150;2023-05-16T00:32:27;6.97;;;4.95;;
2928;SDS011;1474;51.460;7.150;2023-05-16T00:34:53;6.82;;;5.10;;
2928;SDS011;1474;51.460;7.150;2023-05-16T00:37:19;6.07;;;3.97;;
2928;SDS011;1474;51.460;7.150;2023-05-16T00:39:44;6.55;;;4.97;;
2928;SDS011;1474;51.460;7.150;2023-05-16T00:42:10;6.30;;;4.30;;
2928;SDS011;1474;51.460;7.150;2023-05-16T00:44:36;6.47;;;4.18;;
2928;SDS011;1474;51.460;7.150;2023-05-16T00:47:02;5.18;;;3.78;;
2928;SDS011;1474;51.460;7.150;2023-05-16T00:49:28;5.35;;;3.60;;
2928;SDS011;1474;51.460;7.150;2023-05-16T00:51:54;4.65;;;3.30;;
2928;SDS011;1474;51.460;7.150;2023-05-16T00:54:22;3.97;;;3.22;;
2928;SDS011;1474;51.460;7.150;2023-05-16T00:56:51;5.07;;;3.22;;
2928;SDS011;1474;51.460;7.150;2023-05-16T00:59:18;3.53;;;2.65;;
2928;SDS011;1474;51.460;7.150;2023-05-16T01:01:45;3.78;;;2.60;;
2928;SDS011;1474;51.460;7.150;2023-05-16T01:04:12;2.78;;;2.30;;
2928;SDS011;1474;51.460;7.150;2023-05-16T01:06:38;4.45;;;2.92;;
2928;SDS011;1474;51.460;7.150;2023-05-16T01:09:04;8.95;;;2.65;;
2928;SDS011;1474;51.460;7.150;2023-05-16T01:17:37;4.22;;;2.70;;
2928;SDS011;1474;51.460;7.150;2023-05-16T01:28:16;4.40;;;3.72;;
2928;SDS011;1474;51.460;7.150;2023-05-16T01:30:43;5.78;;;3.25;;
2928;SDS011;1474;51.460;7.150;2023-05-16T01:33:09;5.60;;;3.50;;
2928;SDS011;1474;51.460;7.150;2023-05-16T01:35:36;4.05;;;3.65;;
2928;SDS011;1474;51.460;7.150;2023-05-16T01:38:17;5.75;;;3.13;;
2928;SDS011;1474;51.460;7.150;2023-05-16T01:41:07;4.60;;;2.42;;
2928;SDS011;1474;51.460;7.150;2023-05-16T01:43:53;3.13;;;2.10;;
2928;SDS011;1474;51.460;7.150;2023-05-16T01:46:30;4.53;;;2.35;;
2928;SDS011;1474;51.460;7.150;2023-05-16T01:51:49;9.73;;;1.98;;
2928;SDS011;1474;51.460;7.150;2023-05-16T01:54:24;3.50;;;1.92;;
2928;SDS011;1474;51.460;7.150;2023-05-16T01:56:55;7.13;;;2.30;;
2928;SDS011;1474;51.460;7.150;2023-05-16T01:59:22;6.30;;;2.47;;
2928;SDS011;1474;51.460;7.150;2023-05-16T02:01:51;4.00;;;1.77;;
2928;SDS011;1474;51.460;7.150;2023-05-16T02:04:27;3.97;;;1.90;;
2928;SDS011;1474;51.460;7.150;2023-05-16T02:06:53;4.25;;;2.33;;
2928;SDS011;1474;51.460;7.150;2023-05-16T02:09:19;5.63;;;2.65;;
2928;SDS011;1474;51.460;7.150;2023-05-16T02:11:44;4.75;;;2.47;;
2928;SDS011;1474;51.460;7.150;2023-05-16T02:14:11;4.90;;;2.05;;
2928;SDS011;1474;51.460;7.150;2023-05-16T02:16:37;5.35;;;2.80;;
2928;SDS011;1474;51.460;7.150;2023-05-16T02:19:03;4.10;;;1.85;;
2928;SDS011;1474;51.460;7.150;2023-05-16T02:21:29;5.30;;;2.08;;
2928;SDS011;1474;51.460;7.150;2023-05-16T02:23:55;6.32;;;2.25;;
2928;SDS011;1474;51.460;7.150;2023-05-16T02:26:21;7.20;;;2.45;;
2928;SDS011;1474;51.460;7.150;2023-05-16T02:28:46;5.93;;;2.30;;
2928;SDS011;1474;51.460;7.150;2023-05-16T02:31:24;7.82;;;2.30;;
2928;SDS011;1474;51.460;7.150;2023-05-16T02:33:55;6.25;;;2.28;;
2928;SDS011;1474;51.460;7.150;2023-05-16T02:36:22;7.45;;;2.38;;
2928;SDS011;1474;51.460;7.150;2023-05-16T02:38:49;7.40;;;2.30;;
2928;SDS011;1474;51.460;7.150;2023-05-16T02:41:15;8.10;;;2.30;;
2928;SDS011;1474;51.460;7.150;2023-05-16T02:43:41;6.28;;;2.28;;
2928;SDS011;1474;51.460;7.150;2023-05-16T02:46:23;9.38;;;2.67;;
2928;SDS011;1474;51.460;7.150;2023-05-16T02:48:56;5.30;;;2.40;;
2928;SDS011;1474;51.460;7.150;2023-05-16T02:51:23;8.15;;;2.40;;
2928;SDS011;1474;51.460;7.150;2023-05-16T02:53:51;6.93;;;2.78;;
2928;SDS011;1474;51.460;7.150;2023-05-16T02:56:18;9.63;;;2.35;;
2928;SDS011;1474;51.460;7.150;2023-05-16T02:58:46;8.52;;;3.17;;
2928;SDS011;1474;51.460;7.150;2023-05-16T03:01:13;6.90;;;2.53;;
2928;SDS011;1474;51.460;7.150;2023-05-16T03:03:40;5.25;;;3.10;;
2928;SDS011;1474;51.460;7.150;2023-05-16T03:06:06;8.75;;;3.03;;
2928;SDS011;1474;51.460;7.150;2023-05-16T03:08:32;8.75;;;2.63;;
2928;SDS011;1474;51.460;7.150;2023-05-16T03:10:59;7.18;;;3.00;;
2928;SDS011;1474;51.460;7.150;2023-05-16T03:13:25;9.50;;;3.15;;
2928;SDS011;1474;51.460;7.150;2023-05-16T03:15:52;7.60;;;3.08;;
2928;SDS011;1474;51.460;7.150;2023-05-16T03:18:17;8.73;;;2.72;;
2928;SDS011;1474;51.460;7.150;2023-05-16T03:20:43;7.60;;;2.88;;
2928;SDS011;1474;51.460;7.150;2023-05-16T03:23:09;12.93;;;2.97;;
2928;SDS011;1474;51.460;7.150;2023-05-16T03:25:35;8.80;;;3.15;;
2928;SDS011;1474;51.460;7.150;2023-05-16T03:28:02;9.70;;;3.13;;
2928;SDS011;1474;51.460;7.150;2023-05-16T03:30:31;7.55;;;3.13;;
2928;SDS011;1474;51.460;7.150;2023-05-16T03:32:56;11.77;;;2.45;;
2928;SDS011;1474;51.460;7.150;2023-05-16T03:35:22;11.95;;;3.00;;
2928;SDS011;1474;51.460;7.150;2023-05-16T03:37:48;6.65;;;1.95;;
2928;SDS011;1474;51.460;7.150;2023-05-16T03:40:14;6.03;;;2.10;;
2928;SDS011;1474;51.460;7.150;2023-05-16T03:42:40;11.20;;;2.67;;
2928;SDS011;1474;51.460;7.150;2023-05-16T03:45:06;7.20;;;2.28;;
2928;SDS011;1474;51.460;7.150;2023-05-16T03:47:32;11.70;;;3.08;;
2928;SDS011;1474;51.460;7.150;2023-05-16T03:49:58;10.75;;;2.85;;
2928;SDS011;1474;51.460;7.150;2023-05-16T03:52:24;7.53;;;2.53;;
2928;SDS011;1474;51.460;7.150;2023-05-16T03:54:50;8.82;;;2.17;;
2928;SDS011;1474;51.460;7.150;2023-05-16T03:57:16;6.63;;;2.30;;
2928;SDS011;1474;51.460;7.150;2023-05-16T03:59:41;11.65;;;3.13;;
2928;SDS011;1474;51.460;7.150;2023-05-16T04:02:08;7.43;;;2.30;;
2928;SDS011;1474;51.460;7.150;2023-05-16T04:04:34;9.38;;;2.40;;
2928;SDS011;1474;51.460;7.150;2023-05-16T04:07:03;9.77;;;2.78;;
2928;SDS011;1474;51.460;7.150;2023-05-16T04:09:29;12.75;;;2.78;;
2928;SDS011;1474;51.460;7.150;2023-05-16T04:11:55;6.53;;;2.17;;
2928;SDS011;1474;51.460;7.150;2023-05-16T04:14:21;7.88;;;2.28;;
2928;SDS011;1474;51.460;7.150;2023-05-16T04:16:48;8.02;;;2.15;;
2928;SDS011;1474;51.460;7.150;2023-05-16T04:19:14;8.05;;;2.20;;
2928;SDS011;1474;51.460;7.150;2023-05-16T04:21:40;10.75;;;2.47;;
2928;SDS011;1474;51.460;7.150;2023-05-16T04:24:06;7.85;;;2.05;;
2928;SDS011;1474;51.460;7.150;2023-05-16T04:26:32;9.27;;;2.20;;
2928;SDS011;1474;51.460;7.150;2023-05-16T04:28:58;8.05;;;1.85;;
2928;SDS011;1474;51.460;7.150;2023-05-16T04:31:24;7.80;;;2.08;;
2928;SDS011;1474;51.460;7.150;2023-05-16T04:33:50;7.18;;;1.75;;
2928;SDS011;1474;51.460;7.150;2023-05-16T04:36:17;10.10;;;2.78;;
2928;SDS011;1474;51.460;7.150;2023-05-16T04:38:42;5.78;;;2.25;;
2928;SDS011;1474;51.460;7.150;2023-05-16T04:41:10;12.00;;;2.30;;
2928;SDS011;1474;51.460;7.150;2023-05-16T04:43:37;8.60;;;2.67;;
2928;SDS011;1474;51.460;7.150;2023-05-16T04:46:04;8.75;;;1.45;;
2928;SDS011;1474;51.460;7.150;2023-05-16T04:48:31;7.40;;;2.08;;
2928;SDS011;1474;51.460;7.150;2023-05-16T04:50:58;7.10;;;2.60;;
2928;SDS011;1474;51.460;7.150;2023-05-16T04:53:24;9.73;;;2.60;;
2928;SDS011;1474;51.460;7.150;2023-05-16T04:55:50;9.18;;;2.35;;
2928;SDS011;1474;51.460;7.150;2023-05-16T04:58:19;7.45;;;2.53;;
2928;SDS011;1474;51.460;7.150;2023-05-16T05:00:45;9.10;;;2.00;;
2928;SDS011;1474;51.460;7.150;2023-05-16T05:03:11;7.38;;;1.98;;
2928;SDS011;1474;51.460;7.150;2023-05-16T05:05:37;8.38;;;1.92;;
2928;SDS011;1474;51.460;7.150;2023-05-16T05:08:03;10.57;;;2.47;;
2928;SDS011;1474;51.460;7.150;2023-05-16T05:10:29;9.32;;;2.50;;
2928;SDS011;1474;51.460;7.150;2023-05-16T05:12:55;7.40;;;2.15;;
2928;SDS011;1474;51.460;7.150;2023-05-16T05:15:21;6.72;;;2.13;;
2928;SDS011;1474;51.460;7.150;2023-05-16T05:17:47;6.60;;;2.28;;
2928;SDS011;1474;51.460;7.150;2023-05-16T05:20:13;10.05;;;2.28;;
2928;SDS011;1474;51.460;7.150;2023-05-16T05:22:39;8.23;;;2.20;;
2928;SDS011;1474;51.460;7.150;2023-05-16T05:25:05;6.57;;;1.90;;
2928;SDS011;1474;51.460;7.150;2023-05-16T05:27:31;9.77;;;2.25;;
2928;SDS011;1474;51.460;7.150;2023-05-16T05:29:57;8.65;;;2.65;;
2928;SDS011;1474;51.460;7.150;2023-05-16T05:32:22;5.38;;;1.48;;
2928;SDS011;1474;51.460;7.150;2023-05-16T05:34:48;11.20;;;1.90;;
2928;SDS011;1474;51.460;7.150;2023-05-16T05:37:14;11.70;;;2.08;;
2928;SDS011;1474;51.460;7.150;2023-05-16T05:39:40;8.38;;;1.63;;
2928;SDS011;1474;51.460;7.150;2023-05-16T05:42:06;7.32;;;1.48;;
2928;SDS011;1474;51.460;7.150;2023-05-16T05:44:31;6.85;;;1.52;;
2928;SDS011;1474;51.460;7.150;2023-05-16T05:46:57;6.90;;;1.75;;
2928;SDS011;1474;51.460;7.150;2023-05-16T05:49:24;5.05;;;1.52;;
2928;SDS011;1474;51.460;7.150;2023-05-16T05:51:51;7.25;;;1.50;;
2928;SDS011;1474;51.460;7.150;2023-05-16T05:54:18;10.60;;;1.58;;
2928;SDS011;1474;51.460;7.150;2023-05-16T05:56:44;8.23;;;1.52;;
2928;SDS011;1474;51.460;7.150;2023-05-16T05:59:10;13.88;;;2.38;;
2928;SDS011;1474;51.460;7.150;2023-05-16T06:01:36;7.25;;;1.33;;
2928;SDS011;1474;51.460;7.150;2023-05-16T06:04:02;8.20;;;1.52;;
2928;SDS011;1474;51.460;7.150;2023-05-16T06:06:28;4.15;;;1.33;;
2928;SDS011;1474;51.460;7.150;2023-05-16T06:08:55;11.13;;;2.08;;
2928;SDS011;1474;51.460;7.150;2023-05-16T06:11:20;6.65;;;1.50;;
2928;SDS011;1474;51.460;7.150;2023-05-16T06:13:46;11.43;;;1.65;;
2928;SDS011;1474;51.460;7.150;2023-05-16T06:16:12;7.80;;;1.95;;
2928;SDS011;1474;51.460;7.150;2023-05-16T06:18:38;6.63;;;1.42;;
2928;SDS011;1474;51.460;7.150;2023-05-16T06:21:04;8.98;;;1.70;;
2928;SDS011;1474;51.460;7.150;2023-05-16T06:23:31;6.05;;;1.40;;
2928;SDS011;1474;51.460;7.150;2023-05-16T06:25:57;10.02;;;1.83;;
2928;SDS011;1474;51.460;7.150;2023-05-16T06:28:23;8.65;;;1.98;;
2928;SDS011;1474;51.460;7.150;2023-05-16T06:30:49;4.45;;;2.03;;
2928;SDS011;1474;51.460;7.150;2023-05-16T06:33:16;9.65;;;1.52;;
2928;SDS011;1474;51.460;7.150;2023-05-16T06:35:42;5.57;;;1.13;;
2928;SDS011;1474;51.460;7.150;2023-05-16T06:38:08;6.70;;;1.48;;
2928;SDS011;1474;51.460;7.150;2023-05-16T06:40:34;7.57;;;2.03;;
2928;SDS011;1474;51.460;7.150;2023-05-16T06:43:00;5.53;;;1.15;;
2928;SDS011;1474;51.460;7.150;2023-05-16T06:45:26;4.18;;;1.58;;
2928;SDS011;1474;51.460;7.150;2023-05-16T06:47:52;6.38;;;1.70;;
2928;SDS011;1474;51.460;7.150;2023-05-16T06:50:17;3.45;;;1.10;;
2928;SDS011;1474;51.460;7.150;2023-05-16T06:52:43;5.63;;;1.23;;
2928;SDS011;1474;51.460;7.150;2023-05-16T06:55:09;5.45;;;1.58;;
2928;SDS011;1474;51.460;7.150;2023-05-16T06:57:35;7.30;;;1.50;;
2928;SDS011;1474;51.460;7.150;2023-05-16T07:00:01;2.63;;;0.93;;
2928;SDS011;1474;51.460;7.150;2023-05-16T07:02:27;7.25;;;1.83;;
2928;SDS011;1474;51.460;7.150;2023-05-16T07:04:52;5.30;;;1.00;;
2928;SDS011;1474;51.460;7.150;2023-05-16T07:07:18;8.55;;;2.47;;
2928;SDS011;1474;51.460;7.150;2023-05-16T07:09:44;7.85;;;1.42;;
2928;SDS011;1474;51.460;7.150;2023-05-16T07:12:10;7.22;;;1.67;;
2928;SDS011;1474;51.460;7.150;2023-05-16T07:14:36;9.25;;;1.20;;
2928;SDS011;1474;51.460;7.150;2023-05-16T07:17:02;8.02;;;1.38;;
2928;SDS011;1474;51.460;7.150;2023-05-16T07:19:28;5.97;;;1.52;;
2928;SDS011;1474;51.460;7.150;2023-05-16T07:21:53;5.20;;;1.20;;
2928;SDS011;1474;51.460;7.150;2023-05-16T07:24:20;6.00;;;1.23;;
2928;SDS011;1474;51.460;7.150;2023-05-16T07:26:45;6.53;;;1.10;;
2928;SDS011;1474;51.460;7.150;2023-05-16T07:29:11;10.43;;;1.25;;
2928;SDS011;1474;51.460;7.150;2023-05-16T07:31:37;6.68;;;1.40;;
2928;SDS011;1474;51.460;7.150;2023-05-16T07:34:02;5.68;;;1.42;;
2928;SDS011;1474;51.460;7.150;2023-05-16T07:36:28;4.72;;;1.08;;
2928;SDS011;1474;51.460;7.150;2023-05-16T07:38:55;3.80;;;1.98;;
2928;SDS011;1474;51.460;7.150;2023-05-16T07:41:20;4.07;;;1.17;;
2928;SDS011;1474;51.460;7.150;2023-05-16T07:43:46;4.55;;;1.00;;
2928;SDS011;1474;51.460;7.150;2023-05-16T07:46:12;4.45;;;1.00;;
2928;SDS011;1474;51.460;7.150;2023-05-16T07:48:38;4.13;;;1.10;;
2928;SDS011;1474;51.460;7.150;2023-05-16T07:51:04;11.20;;;1.48;;
2928;SDS011;1474;51.460;7.150;2023-05-16T07:53:30;3.33;;;1.50;;
2928;SDS011;1474;51.460;7.150;2023-05-16T07:55:55;6.55;;;1.13;;
2928;SDS011;1474;51.460;7.150;2023-05-16T07:58:21;5.45;;;1.33;;
2928;SDS011;1474;51.460;7.150;2023-05-16T08:00:47;5.07;;;1.02;;
2928;SDS011;1474;51.460;7.150;2023-05-16T08:03:13;8.00;;;1.10;;
2928;SDS011;1474;51.460;7.150;2023-05-16T08:05:39;3.70;;;1.00;;
2928;SDS011;1474;51.460;7.150;2023-05-16T08:08:05;4.10;;;0.70;;
2928;SDS011;1474;51.460;7.150;2023-05-16T08:10:31;3.70;;;1.00;;
2928;SDS011;1474;51.460;7.150;2023-05-16T08:12:57;3.90;;;0.82;;
2928;SDS011;1474;51.460;7.150;2023-05-16T08:15:23;2.00;;;0.70;;
2928;SDS011;1474;51.460;7.150;2023-05-16T08:17:53;3.35;;;1.10;;
2928;SDS011;1474;51.460;7.150;2023-05-16T08:20:22;4.53;;;1.10;;
2928;SDS011;1474;51.460;7.150;2023-05-16T08:22:48;4.85;;;0.80;;
2928;SDS011;1474;51.460;7.150;2023-05-16T08:25:15;4.35;;;1.05;;
2928;SDS011;1474;51.460;7.150;2023-05-16T08:27:40;5.50;;;0.90;;
2928;SDS011;1474;51.460;7.150;2023-05-16T08:30:07;3.95;;;0.80;;
2928;SDS011;1474;51.460;7.150;2023-05-16T08:32:33;4.20;;;1.15;;
2928;SDS011;1474;51.460;7.150;2023-05-16T08:34:59;5.40;;;0.95;;
2928;SDS011;1474;51.460;7.150;2023-05-16T08:37:25;2.33;;;0.80;;
2928;SDS011;1474;51.460;7.150;2023-05-16T08:39:51;3.58;;;1.02;;
2928;SDS011;1474;51.460;7.150;2023-05-16T08:42:16;6.40;;;1.63;;
2928;SDS011;1474;51.460;7.150;2023-05-16T08:44:42;3.75;;;1.05;;
2928;SDS011;1474;51.460;7.150;2023-05-16T08:47:14;4.57;;;1.20;;
2928;SDS011;1474;51.460;7.150;2023-05-16T08:49:46;2.00;;;0.93;;
2928;SDS011;1474;51.460;7.150;2023-05-16T08:52:16;4.10;;;0.90;;
2928;SDS011;1474;51.460;7.150;2023-05-16T08:54:45;3.55;;;1.20;;
2928;SDS011;1474;51.460;7.150;2023-05-16T08:57:15;5.10;;;1.17;;
2928;SDS011;1474;51.460;7.150;2023-05-16T08:59:41;15.15;;;2.13;;
2928;SDS011;1474;51.460;7.150;2023-05-16T09:02:09;4.40;;;1.00;;
2928;SDS011;1474;51.460;7.150;2023-05-16T09:04:36;1.92;;;0.45;;
2928;SDS011;1474;51.460;7.150;2023-05-16T09:07:02;3.92;;;0.70;;
2928;SDS011;1474;51.460;7.150;2023-05-16T09:09:28;2.92;;;1.00;;
2928;SDS011;1474;51.460;7.150;2023-05-16T09:11:55;2.15;;;1.10;;
2928;SDS011;1474;51.460;7.150;2023-05-16T09:14:21;3.72;;;1.00;;
2928;SDS011;1474;51.460;7.150;2023-05-16T09:17:01;2.25;;;0.50;;
2928;SDS011;1474;51.460;7.150;2023-05-16T09:19:38;2.33;;;0.75;;
2928;SDS011;1474;51.460;7.150;2023-05-16T09:22:12;4.65;;;0.80;;
2928;SDS011;1474;51.460;7.150;2023-05-16T09:24:40;1.77;;;0.50;;
2928;SDS011;1474;51.460;7.150;2023-05-16T09:27:12;2.92;;;0.80;;
2928;SDS011;1474;51.460;7.150;2023-05-16T09:29:39;3.72;;;0.82;;
2928;SDS011;1474;51.460;7.150;2023-05-16T09:32:14;2.17;;;0.77;;
2928;SDS011;1474;51.460;7.150;2023-05-16T09:34:44;5.32;;;1.40;;
2928;SDS011;1474;51.460;7.150;2023-05-16T09:37:22;2.08;;;0.55;;
2928;SDS011;1474;51.460;7.150;2023-05-16T09:39:49;4.30;;;0.90;;
2928;SDS011;1474;51.460;7.150;2023-05-16T09:42:21;2.60;;;0.63;;
2928;SDS011;1474;51.460;7.150;2023-05-16T09:44:50;4.05;;;1.00;;
2928;SDS011;1474;51.460;7.150;2023-05-16T09:47:19;3.45;;;0.65;;
2928;SDS011;1474;51.460;7.150;2023-05-16T09:49:46;4.43;;;1.23;;
2928;SDS011;1474;51.460;7.150;2023-05-16T09:52:17;2.28;;;0.63;;
2928;SDS011;1474;51.460;7.150;2023-05-16T09:54:44;4.25;;;0.80;;
2928;SDS011;1474;51.460;7.150;2023-05-16T09:57:18;1.92;;;0.70;;
2928;SDS011;1474;51.460;7.150;2023-05-16T09:59:45;5.10;;;1.35;;
2928;SDS011;1474;51.460;7.150;2023-05-16T10:02:12;3.95;;;1.00;;
2928;SDS011;1474;51.460;7.150;2023-05-16T10:04:39;5.88;;;0.73;;
2928;SDS011;1474;51.460;7.150;2023-05-16T10:07:05;1.30;;;0.57;;
2928;SDS011;1474;51.460;7.150;2023-05-16T10:09:33;2.65;;;0.50;;
2928;SDS011;1474;51.460;7.150;2023-05-16T10:12:01;3.08;;;0.75;;
2928;SDS011;1474;51.460;7.150;2023-05-16T10:14:34;2.83;;;0.77;;
2928;SDS011;1474;51.460;7.150;2023-05-16T10:17:05;3.20;;;1.00;;
2928;SDS011;1474;51.460;7.150;2023-05-16T10:19:37;4.45;;;0.70;;
2928;SDS011;1474;51.460;7.150;2023-05-16T10:22:05;1.38;;;0.70;;
2928;SDS011;1474;51.460;7.150;2023-05-16T10:24:47;2.78;;;0.82;;
2928;SDS011;1474;51.460;7.150;2023-05-16T10:27:40;5.97;;;0.52;;
2928;SDS011;1474;51.460;7.150;2023-05-16T10:30:06;5.57;;;0.80;;
2928;SDS011;1474;51.460;7.150;2023-05-16T10:32:34;4.05;;;1.10;;
2928;SDS011;1474;51.460;7.150;2023-05-16T10:35:02;2.88;;;0.70;;
2928;SDS011;1474;51.460;7.150;2023-05-16T10:37:32;1.63;;;0.57;;
2928;SDS011;1474;51.460;7.150;2023-05-16T10:39:58;3.50;;;0.88;;
2928;SDS011;1474;51.460;7.150;2023-05-16T10:42:26;3.17;;;1.00;;
2928;SDS011;1474;51.460;7.150;2023-05-16T10:45:01;3.85;;;0.80;;
2928;SDS011;1474;51.460;7.150;2023-05-16T10:47:44;4.05;;;1.10;;
2928;SDS011;1474;51.460;7.150;2023-05-16T10:50:29;3.95;;;0.90;;
2928;SDS011;1474;51.460;7.150;2023-05-16T10:53:18;1.88;;;0.80;;
2928;SDS011;1474;51.460;7.150;2023-05-16T11:01:13;3.83;;;1.42;;
2928;SDS011;1474;51.460;7.150;2023-05-16T11:09:12;2.28;;;0.63;;
2928;SDS011;1474;51.460;7.150;2023-05-16T11:14:28;1.63;;;1.20;;
2928;SDS011;1474;51.460;7.150;2023-05-16T11:27:33;2.80;;;0.73;;
2928;SDS011;1474;51.460;7.150;2023-05-16T11:30:11;3.40;;;0.98;;
2928;SDS011;1474;51.460;7.150;2023-05-16T11:32:44;2.63;;;0.98;;
2928;SDS011;1474;51.460;7.150;2023-05-16T11:35:12;3.10;;;1.00;;
2928;SDS011;1474;51.460;7.150;2023-05-16T11:37:43;1.55;;;0.50;;
2928;SDS011;1474;51.460;7.150;2023-05-16T11:40:11;3.70;;;1.05;;
2928;SDS011;1474;51.460;7.150;2023-05-16T11:42:58;1.20;;;0.93;;
2928;SDS011;1474;51.460;7.150;2023-05-16T11:45:28;3.15;;;0.80;;
2928;SDS011;1474;51.460;7.150;2023-05-16T11:47:54;2.10;;;0.70;;
2928;SDS011;1474;51.460;7.150;2023-05-16T11:50:28;3.42;;;0.70;;
2928;SDS011;1474;51.460;7.150;2023-05-16T11:52:54;3.45;;;0.80;;
2928;SDS011;1474;51.460;7.150;2023-05-16T11:55:25;7.28;;;1.02;;
2928;SDS011;1474;51.460;7.150;2023-05-16T11:57:54;3.03;;;1.00;;
2928;SDS011;1474;51.460;7.150;2023-05-16T12:00:23;2.97;;;0.88;;
2928;SDS011;1474;51.460;7.150;2023-05-16T12:02:51;2.53;;;0.68;;
2928;SDS011;1474;51.460;7.150;2023-05-16T12:05:19;2.75;;;0.85;;
2928;SDS011;1474;51.460;7.150;2023-05-16T12:07:50;1.98;;;0.75;;
2928;SDS011;1474;51.460;7.150;2023-05-16T12:10:19;3.75;;;0.75;;
2928;SDS011;1474;51.460;7.150;2023-05-16T12:12:46;3.47;;;0.82;;
2928;SDS011;1474;51.460;7.150;2023-05-16T12:15:16;3.17;;;0.57;;
2928;SDS011;1474;51.460;7.150;2023-05-16T12:17:43;2.83;;;0.85;;
2928;SDS011;1474;51.460;7.150;2023-05-16T12:20:10;3.80;;;0.95;;
2928;SDS011;1474;51.460;7.150;2023-05-16T12:22:44;3.88;;;0.80;;
2928;SDS011;1474;51.460;7.150;2023-05-16T12:25:27;2.60;;;0.63;;
2928;SDS011;1474;51.460;7.150;2023-05-16T12:27:56;2.20;;;0.80;;
2928;SDS011;1474;51.460;7.150;2023-05-16T12:30:26;2.40;;;0.80;;
2928;SDS011;1474;51.460;7.150;2023-05-16T12:32:57;1.92;;;0.80;;
2928;SDS011;1474;51.460;7.150;2023-05-16T12:35:31;2.45;;;0.82;;
2928;SDS011;1474;51.460;7.150;2023-05-16T12:37:58;0.80;;;0.40;;
2928;SDS011;1474;51.460;7.150;2023-05-16T12:40:28;1.75;;;0.60;;
2928;SDS011;1474;51.460;7.150;2023-05-16T12:42:55;2.10;;;0.63;;
2928;SDS011;1474;51.460;7.150;2023-05-16T12:45:22;5.47;;;0.85;;
2928;SDS011;1474;51.460;7.150;2023-05-16T12:47:48;2.28;;;1.00;;
2928;SDS011;1474;51.460;7.150;2023-05-16T12:50:15;3.35;;;0.70;;
2928;SDS011;1474;51.460;7.150;2023-05-16T12:52:53;2.08;;;0.50;;
2928;SDS011;1474;51.460;7.150;2023-05-16T12:55:26;3.08;;;0.90;;
2928;SDS011;1474;51.460;7.150;2023-05-16T12:57:53;1.75;;;0.80;;
2928;SDS011;1474;51.460;7.150;2023-05-16T13:00:21;2.55;;;0.80;;
2928;SDS011;1474;51.460;7.150;2023-05-16T13:02:47;1.92;;;0.70;;
2928;SDS011;1474;51.460;7.150;2023-05-16T13:05:13;2.17;;;0.85;;
2928;SDS011;1474;51.460;7.150;2023-05-16T13:07:39;3.28;;;1.00;;
2928;SDS011;1474;51.460;7.150;2023-05-16T13:10:09;2.20;;;0.70;;
2928;SDS011;1474;51.460;7.150;2023-05-16T13:12:39;1.67;;;0.75;;
2928;SDS011;1474;51.460;7.150;2023-05-16T13:15:06;2.72;;;0.70;;
2928;SDS011;1474;51.460;7.150;2023-05-16T13:17:34;2.08;;;0.55;;
2928;SDS011;1474;51.460;7.150;2023-05-16T13:20:04;0.63;;;0.43;;
2928;SDS011;1474;51.460;7.150;2023-05-16T13:22:34;1.55;;;0.50;;
2928;SDS011;1474;51.460;7.150;2023-05-16T13:25:00;3.45;;;0.65;;
2928;SDS011;1474;51.460;7.150;2023-05-16T13:27:28;1.33;;;0.50;;
2928;SDS011;1474;51.460;7.150;2023-05-16T13:29:55;3.33;;;0.60;;
2928;SDS011;1474;51.460;7.150;2023-05-16T13:32:20;3.15;;;0.60;;
2928;SDS011;1474;51.460;7.150;2023-05-16T13:34:46;1.67;;;0.82;;
2928;SDS011;1474;51.460;7.150;2023-05-16T13:37:12;1.67;;;0.68;;
2928;SDS011;1474;51.460;7.150;2023-05-16T13:39:38;2.20;;;0.50;;
2928;SDS011;1474;51.460;7.150;2023-05-16T13:42:05;2.17;;;0.60;;
2928;SDS011;1474;51.460;7.150;2023-05-16T13:44:31;2.08;;;0.70;;
2928;SDS011;1474;51.460;7.150;2023-05-16T13:46:57;2.70;;;0.75;;
2928;SDS011;1474;51.460;7.150;2023-05-16T13:49:23;2.58;;;0.68;;
2928;SDS011;1474;51.460;7.150;2023-05-16T13:51:49;1.65;;;0.68;;
2928;SDS011;1474;51.460;7.150;2023-05-16T13:54:16;1.75;;;0.50;;
2928;SDS011;1474;51.460;7.150;2023-05-16T13:56:43;1.70;;;1.00;;
2928;SDS011;1474;51.460;7.150;2023-05-16T13:59:09;3.10;;;1.00;;
2928;SDS011;1474;51.460;7.150;2023-05-16T14:01:35;3.58;;;0.70;;
2928;SDS011;1474;51.460;7.150;2023-05-16T14:04:01;2.90;;;0.85;;
2928;SDS011;1474;51.460;7.150;2023-05-16T14:06:28;4.38;;;0.68;;
2928;SDS011;1474;51.460;7.150;2023-05-16T14:08:53;1.15;;;0.63;;
2928;SDS011;1474;51.460;7.150;2023-05-16T14:11:19;2.55;;;0.60;;
2928;SDS011;1474;51.460;7.150;2023-05-16T14:13:50;5.70;;;1.55;;
2928;SDS011;1474;51.460;7.150;2023-05-16T14:16:16;3.13;;;0.77;;
2928;SDS011;1474;51.460;7.150;2023-05-16T14:18:42;4.30;;;0.98;;
2928;SDS011;1474;51.460;7.150;2023-05-16T14:21:08;1.67;;;0.57;;
2928;SDS011;1474;51.460;7.150;2023-05-16T14:23:34;1.63;;;0.60;;
2928;SDS011;1474;51.460;7.150;2023-05-16T14:26:00;3.03;;;0.68;;
2928;SDS011;1474;51.460;7.150;2023-05-16T14:28:26;2.55;;;0.90;;
2928;SDS011;1474;51.460;7.150;2023-05-16T14:30:52;3.20;;;0.80;;
2928;SDS011;1474;51.460;7.150;2023-05-16T14:33:18;2.75;;;0.88;;
2928;SDS011;1474;51.460;7.150;2023-05-16T14:35:44;2.00;;;0.80;;
2928;SDS011;1474;51.460;7.150;2023-05-16T14:38:10;2.97;;;1.48;;
2928;SDS011;1474;51.460;7.150;2023-05-16T14:40:36;1.40;;;0.63;;
2928;SDS011;1474;51.460;7.150;2023-05-16T14:43:01;3.13;;;0.90;;
2928;SDS011;1474;51.460;7.150;2023-05-16T14:45:30;3.72;;;0.90;;
2928;SDS011;1474;51.460;7.150;2023-05-16T14:47:56;1.90;;;0.85;;
2928;SDS011;1474;51.460;7.150;2023-05-16T14:50:22;4.75;;;1.05;;
2928;SDS011;1474;51.460;7.150;2023-05-16T14:52:47;3.22;;;1.00;;
2928;SDS011;1474;51.460;7.150;2023-05-16T14:55:14;4.57;;;1.00;;
2928;SDS011;1474;51.460;7.150;2023-05-16T14:57:40;3.08;;;0.82;;
2928;SDS011;1474;51.460;7.150;2023-05-16T15:00:06;3.20;;;0.70;;
2928;SDS011;1474;51.460;7.150;2023-05-16T15:02:34;3.40;;;0.90;;
2928;SDS011;1474;51.460;7.150;2023-05-16T15:05:00;3.25;;;0.88;;
2928;SDS011;1474;51.460;7.150;2023-05-16T15:07:26;4.93;;;1.13;;
2928;SDS011;1474;51.460;7.150;2023-05-16T15:09:51;1.85;;;0.68;;
2928;SDS011;1474;51.460;7.150;2023-05-16T15:12:17;4.63;;;0.95;;
2928;SDS011;1474;51.460;7.150;2023-05-16T15:14:43;2.90;;;0.98;;
2928;SDS011;1474;51.460;7.150;2023-05-16T15:17:08;3.80;;;1.25;;
2928;SDS011;1474;51.460;7.150;2023-05-16T15:19:34;2.75;;;1.50;;
2928;SDS011;1474;51.460;7.150;2023-05-16T15:22:00;1.92;;;0.60;;
2928;SDS011;1474;51.460;7.150;2023-05-16T15:24:26;4.28;;;1.00;;
2928;SDS011;1474;51.460;7.150;2023-05-16T15:26:52;3.88;;;1.08;;
2928;SDS011;1474;51.460;7.150;2023-05-16T15:29:17;3.47;;;1.13;;
2928;SDS011;1474;51.460;7.150;2023-05-16T15:31:44;3.90;;;1.23;;
2928;SDS011;1474;51.460;7.150;2023-05-16T15:34:10;3.40;;;1.13;;
2928;SDS011;1474;51.460;7.150;2023-05-16T15:36:36;6.85;;;1.17;;
2928;SDS011;1474;51.460;7.150;2023-05-16T15:39:02;3.30;;;0.90;;
2928;SDS011;1474;51.460;7.150;2023-05-16T15:41:28;3.05;;;1.00;;
2928;SDS011;1474;51.460;7.150;2023-05-16T15:43:54;2.10;;;0.80;;
2928;SDS011;1474;51.460;7.150;2023-05-16T15:46:20;4.32;;;1.20;;
2928;SDS011;1474;51.460;7.150;2023-05-16T15:48:45;2.75;;;0.90;;
2928;SDS011;1474;51.460;7.150;2023-05-16T15:51:11;1.25;;;0.88;;
2928;SDS011;1474;51.460;7.150;2023-05-16T15:53:38;5.35;;;1.70;;
2928;SDS011;1474;51.460;7.150;2023-05-16T15:56:03;2.95;;;0.75;;
2928;SDS011;1474;51.460;7.150;2023-05-16T15:58:30;3.22;;;0.95;;